Latest Weather Observations for Roseworthy

IDS60801

Issued at 4:05 pm CDT Sunday 26 October 2014 (issued every 30 minutes, with the page automatically refreshed every 10 minutes)

About weather observations | Map of weather stations | Latest weather observations for SA | Other Formats
Station Details ID: 023122 Name: ROSEWORTHY AWS Lat: -34.51 Lon: 138.68 Height: 65.0 m
Data from the previous 72 hours. | See also: Recent months at Roseworthy
Date/Time
CDT
Temp
°C
App
Temp
°C
Dew
Point
Rel
Hum
%
Delta-T
°C
Wind Press
QNH
hPa
Press
MSL
hPa
Rain
since 9 am
mm
Dir
 
Spd
km/h
Gust
km/h
Spd
kts
Gust
kts
26/04:00pm 27.8 26.4 12.2 38 9.1 N 11 17 6 9 1007.1 - 0.4
26/03:30pm 28.5 24.8 10.2 32 10.4 NNW 20 30 11 16 1007.6 - 0.4
26/03:00pm 27.0 22.4 11.1 37 9.1 N 26 37 14 20 1008.4 1008.4 0.4
26/02:37pm 26.9 20.5 10.6 36 9.2 NNW 35 54 19 29 1009.4 - 0.4
26/02:30pm 27.6 19.7 9.4 32 10.1 NNW 41 56 22 30 1009.5 - 0.4
26/02:00pm 29.3 22.7 9.9 30 10.9 NNW 35 50 19 27 1008.4 - 0.4
26/01:30pm 27.4 21.6 11.4 37 9.2 NNW 33 50 18 27 1009.4 - 0.4
26/01:00pm 26.1 20.7 12.2 42 8.0 NNW 32 41 17 22 1009.9 - 0.4
26/12:30pm 26.1 21.7 11.8 41 8.2 NNW 26 39 14 21 1010.4 - 0.4
26/12:00pm 25.0 22.9 14.8 53 6.1 N 19 24 10 13 1011.3 1011.3 0.4
26/11:30am 24.1 23.2 15.9 60 5.0 NE 15 20 8 11 1010.6 - 0.4
26/11:00am 21.0 20.9 17.0 78 2.4 NE 13 19 7 10 1011.3 - 0.2
26/10:30am 18.7 17.4 14.8 78 2.3 N 15 20 8 11 1013.0 - 0.2
26/10:00am 18.7 16.1 13.3 71 3.1 NE 19 26 10 14 1012.9 - 0.0
26/09:30am 17.5 15.5 13.8 79 2.1 NE 17 24 9 13 1011.7 - 0.0
26/09:00am 15.2 10.6 12.3 83 1.6 ENE 28 43 15 23 1012.1 1012.1 0.4
26/08:42am 14.6 10.5 11.6 82 1.6 ENE 24 33 13 18 1012.8 - 0.4
26/08:30am 14.8 12.0 11.2 79 1.9 NNE 17 22 9 12 1015.0 - 0.0
26/08:00am 14.9 12.8 9.9 72 2.6 NNE 11 13 6 7 1015.6 - 0.0
26/07:30am 14.2 13.9 10.0 76 2.2 NW 2 9 1 5 1015.8 - 0.0
26/07:00am 14.0 11.1 9.6 75 2.3 W 15 24 8 13 1015.4 - 0.0
26/06:53am 13.5 12.1 9.7 78 2.0 SE 7 19 4 10 1014.7 - 0.0
26/06:30am 12.6 10.7 8.9 78 1.9 SE 9 11 5 6 1012.6 - 0.0
26/06:00am 11.7 9.9 7.8 77 1.9 E 7 13 4 7 1011.9 1011.9 0.0
26/05:30am 11.6 9.1 8.1 79 1.7 ENE 11 13 6 7 1011.9 - 0.0
26/05:00am 11.3 8.7 7.8 79 1.7 ENE 11 13 6 7 1011.9 - 0.0
26/04:30am 11.1 9.0 9.7 91 0.7 ENE 11 13 6 7 1011.9 - 0.0
26/04:00am 10.0 7.3 7.3 83 1.3 NE 11 13 6 7 1012.4 - 0.0
26/03:30am 9.1 6.4 5.5 78 1.6 ENE 9 11 5 6 1012.4 - 0.0
26/03:00am 8.9 6.6 5.5 79 1.5 ENE 7 9 4 5 1012.5 1012.5 0.0
26/02:30am 9.1 6.9 5.1 76 1.8 E 6 7 3 4 1013.1 - 0.0
26/02:00am 9.4 6.6 2.9 64 2.8 ENE 7 9 4 5 1013.2 - 0.0
26/01:30am 9.4 6.6 5.0 74 2.0 NE 9 11 5 6 1013.5 - 0.0
26/01:00am 9.8 6.6 5.0 72 2.2 NNE 11 13 6 7 1013.7 - 0.0
26/12:30am 10.2 7.1 7.3 82 1.4 NE 13 15 7 8 1013.9 - 0.0
26/12:00am 9.6 7.1 8.0 90 0.8 NE 11 15 6 8 1014.6 1014.7 0.0
 
Date/Time
CDT
Temp
°C
App
Temp
°C
Dew
Point
Rel
Hum
%
Delta-T
°C
Wind Press
QNH
hPa
Press
MSL
hPa
Rain
since 9 am
mm
Dir
 
Spd
km/h
Gust
km/h
Spd
kts
Gust
kts
25/11:30pm 9.8 6.7 3.5 65 2.7 NE 9 11 5 6 1015.0 - 0.0
25/11:00pm 10.2 8.2 7.3 82 1.4 NNE 7 9 4 5 1015.1 - 0.0
25/10:30pm 9.9 8.8 5.3 73 2.1 CALM 0 0 0 0 1015.7 - 0.0
25/10:00pm 11.3 10.5 6.6 73 2.2 CALM 0 0 0 0 1015.9 - 0.0
25/09:30pm 11.4 9.4 6.3 71 2.4 ENE 6 9 3 5 1015.6 - 0.0
25/09:00pm 12.0 11.2 6.3 68 2.7 CALM 0 0 0 0 1015.8 1015.9 0.0
25/08:30pm 14.4 12.7 7.5 63 3.4 WSW 6 7 3 4 1015.6 - 0.0
25/08:00pm 17.1 15.6 9.0 59 4.2 WSW 7 9 4 5 1015.3 - 0.0
25/07:30pm 19.1 17.1 10.1 56 4.8 WSW 11 13 6 7 1015.4 - 0.0
25/07:00pm 21.5 18.4 8.7 44 6.8 WSW 15 19 8 10 1015.3 - 0.0
25/06:30pm 22.9 19.3 8.2 39 7.8 SW 17 20 9 11 1014.9 - 0.0
25/06:00pm 23.7 20.1 6.9 34 8.7 SW 15 20 8 11 1014.6 1014.7 0.0
25/05:30pm 24.5 20.7 7.6 34 8.9 WSW 17 22 9 12 1014.6 - 0.0
25/05:00pm 24.8 21.2 9.9 39 8.2 WSW 19 28 10 15 1014.7 - 0.0
25/04:30pm 24.7 20.8 9.4 38 8.4 SW 20 32 11 17 1014.6 - 0.0
25/04:00pm 25.6 21.7 9.4 36 8.9 SW 20 30 11 16 1014.7 - 0.0
25/03:30pm 26.4 22.5 9.3 34 9.4 WSW 20 33 11 18 1015.0 - 0.0
25/03:00pm 26.6 22.7 9.5 34 9.4 WSW 20 32 11 17 1015.1 1015.2 0.0
25/02:30pm 25.3 21.1 7.4 32 9.5 W 19 33 10 18 1015.4 - 0.0
25/02:00pm 26.3 21.9 7.4 30 10.1 WSW 20 30 11 16 1015.3 - 0.0
25/01:30pm 24.9 20.9 9.2 37 8.6 WSW 20 32 11 17 1015.3 - 0.0
25/01:00pm 25.5 21.6 9.3 36 8.9 WSW 20 30 11 16 1015.4 - 0.0
25/12:30pm 25.9 22.1 9.7 36 9.0 WSW 20 32 11 17 1015.5 - 0.0
25/12:00pm 26.6 23.3 9.5 34 9.4 SW 17 26 9 14 1015.6 1015.7 0.0
25/11:30am 25.2 22.6 10.6 40 8.2 W 15 24 8 13 1015.9 - 0.0
25/11:00am 24.7 21.6 11.6 44 7.4 W 19 24 10 13 1016.2 - 0.0
25/10:30am 23.6 22.0 14.0 55 5.6 NW 15 22 8 12 1016.4 - 0.0
25/10:00am 22.5 20.9 13.8 58 5.1 NW 15 22 8 12 1016.8 - 0.0
25/09:30am 20.6 19.0 13.8 65 3.9 NW 15 20 8 11 1017.0 - 0.0
25/09:00am 20.1 18.5 14.0 68 3.5 NW 15 19 8 10 1017.0 1017.1 0.0
25/08:30am 18.9 17.8 14.2 74 2.7 NNW 13 17 7 9 1016.9 - 0.0
25/08:00am 17.1 15.0 13.6 80 2.0 N 17 20 9 11 1016.6 - 0.0
25/07:30am 15.1 13.4 12.6 85 1.4 N 13 17 7 9 1016.6 - 0.0
25/07:00am 13.1 11.2 11.8 92 0.7 N 13 15 7 8 1016.0 - 0.0
25/06:30am 10.2 7.7 8.0 86 1.1 NE 11 11 6 6 1015.6 - 0.0
25/06:00am 11.7 10.0 9.8 88 1.0 NNE 9 11 5 6 1015.4 1015.5 0.0
25/05:30am 10.6 7.8 8.7 88 0.9 NE 13 15 7 8 1014.7 - 0.0
25/05:00am 10.7 8.3 8.5 86 1.1 NE 11 15 6 8 1014.2 - 0.0
25/04:30am 10.2 8.0 7.8 85 1.2 NE 9 13 5 7 1014.0 - 0.0
25/04:00am 10.2 8.2 7.3 82 1.4 ENE 7 9 4 5 1014.0 - 0.0
25/03:30am 10.7 8.8 7.4 80 1.6 ENE 7 9 4 5 1014.1 - 0.0
25/03:00am 11.6 9.5 8.3 80 1.6 ENE 9 11 5 6 1014.3 1014.4 0.0
25/02:30am 12.3 10.4 9.1 81 1.6 E 9 11 5 6 1014.6 - 0.0
25/02:00am 11.8 9.8 8.6 81 1.6 E 9 11 5 6 1014.3 - 0.0
25/01:30am 11.6 9.1 8.3 80 1.6 NE 11 13 6 7 1014.5 - 0.0
25/01:00am 12.0 10.2 8.1 77 1.9 N 7 9 4 5 1014.5 - 0.0
25/12:30am 13.4 11.6 9.5 77 2.0 NNE 9 11 5 6 1014.6 - 0.0
25/12:00am 13.8 11.3 9.8 77 2.1 NE 13 15 7 8 1014.3 1014.4 0.0
 
Date/Time
CDT
Temp
°C
App
Temp
°C
Dew
Point
Rel
Hum
%
Delta-T
°C
Wind Press
QNH
hPa
Press
MSL
hPa
Rain
since 9 am
mm
Dir
 
Spd
km/h
Gust
km/h
Spd
kts
Gust
kts
24/11:30pm 13.8 11.7 9.6 76 2.2 NNE 11 15 6 8 1014.5 - 0.0
24/11:00pm 14.8 13.2 10.2 74 2.4 N 9 13 5 7 1014.5 - 0.0
24/10:30pm 15.2 12.9 10.4 73 2.5 N 13 13 7 7 1014.3 - 0.0
24/10:00pm 15.5 14.0 10.5 72 2.6 NNW 9 13 5 7 1014.3 - 0.0
24/09:30pm 17.3 16.5 11.1 67 3.4 W 6 7 3 4 1013.9 - 0.0
24/09:00pm 18.8 17.7 12.1 65 3.7 WSW 9 15 5 8 1013.6 1013.6 0.0
24/08:30pm 20.0 17.9 6.7 42 6.7 W 7 11 4 6 1012.9 - 0.0
24/08:00pm 22.0 20.1 6.7 37 7.8 S 6 7 3 4 1012.4 - 0.0
24/07:30pm 23.5 20.6 6.3 33 8.8 SSW 11 13 6 7 1012.4 - 0.0
24/07:00pm 25.7 21.5 5.8 28 10.3 SSW 17 22 9 12 1012.1 - 0.0
24/06:30pm 27.5 22.2 5.1 24 11.5 SSW 22 35 12 19 1011.8 - 0.0
24/06:00pm 28.7 22.1 4.2 21 12.5 SW 28 39 15 21 1011.5 1011.5 0.0
24/05:30pm 32.9 27.7 3.8 16 15.1 SSW 20 28 11 15 1010.8 - 0.0
24/05:00pm 34.2 30.0 3.9 15 15.9 SSW 15 20 8 11 1010.8 - 0.0
24/04:30pm 35.0 31.5 3.5 14 16.5 SSW 11 22 6 12 1010.9 - 0.0
24/04:00pm 33.7 30.6 3.5 15 15.7 S 9 15 5 8 1011.3 - 0.0
24/03:30pm 34.3 30.5 4.0 15 15.9 WSW 13 22 7 12 1011.8 - 0.0
24/03:00pm 33.4 29.1 3.3 15 15.6 S 15 22 8 12 1012.0 1012.0 0.0
24/02:30pm 33.4 29.1 3.3 15 15.6 WSW 15 24 8 13 1012.4 - 0.0
24/02:00pm 33.0 28.3 2.9 15 15.4 SW 17 32 9 17 1012.8 - 0.0
24/01:30pm 32.4 29.0 4.2 17 14.7 S 11 24 6 13 1013.1 - 0.0
24/01:00pm 32.3 27.9 5.0 18 14.4 SW 17 28 9 15 1013.3 - 0.0
24/12:30pm 32.0 28.3 4.7 18 14.3 W 13 20 7 11 1013.6 - 0.0
24/12:00pm 31.3 27.5 5.7 20 13.6 W 15 26 8 14 1014.0 1014.0 0.0
24/11:30am 30.3 26.2 6.2 22 12.8 W 17 24 9 13 1014.5 - 0.0
24/11:00am 29.6 26.9 7.5 25 12.0 W 11 17 6 9 1014.5 - 0.0
24/10:30am 27.4 25.5 6.8 27 10.9 SSW 6 15 3 8 1014.7 - 0.0
24/10:00am 25.8 23.4 6.9 30 9.9 N 9 13 5 7 1014.7 - 0.0
24/09:30am 24.0 22.2 7.2 34 8.8 SSE 6 9 3 5 1014.4 - 0.0
24/09:00am 22.8 21.0 7.8 38 7.9 S 7 11 4 6 1014.6 1014.7 0.0
24/08:30am 20.2 18.8 8.8 48 6.0 SE 6 9 3 5 1014.4 - 0.0
24/08:00am 17.5 16.2 10.1 62 3.9 E 7 11 4 6 1014.1 - 0.0
24/07:30am 14.6 13.2 9.4 71 2.7 ESE 7 9 4 5 1014.0 - 0.0
24/07:00am 10.9 8.9 8.7 86 1.1 ESE 9 11 5 6 1013.4 - 0.0
24/06:30am 10.0 7.4 7.8 86 1.1 ENE 11 11 6 6 1013.0 - 0.0
24/06:00am 10.8 8.4 8.6 86 1.1 NE 11 13 6 7 1012.6 1012.6 0.0
24/05:30am 11.2 8.5 8.9 86 1.1 NE 13 15 7 8 1012.5 - 0.0
24/05:00am 11.5 8.9 9.4 87 1.1 NE 13 15 7 8 1012.6 - 0.0
24/04:30am 10.4 7.3 9.0 91 0.7 NE 15 17 8 9 1012.6 - 0.0
24/04:00am 9.9 7.8 8.2 89 0.8 E 9 11 5 6 1012.3 - 0.0
24/03:30am 10.6 9.2 9.4 92 0.6 NNE 7 11 4 6 1012.7 - 0.0
24/03:00am 9.4 6.5 8.0 91 0.7 ENE 13 17 7 9 1012.4 1012.4 0.0
24/02:30am 9.6 7.1 8.2 91 0.7 NE 11 15 6 8 1013.4 - 0.0
24/02:00am 10.0 6.9 8.8 92 0.6 NNE 15 15 8 8 1014.1 - 0.0
24/01:30am 9.7 7.5 8.0 89 0.8 NE 9 11 5 6 1014.4 - 0.0
24/01:00am 10.2 7.4 8.6 90 0.8 NE 13 15 7 8 1014.6 - 0.0
24/12:30am 10.3 7.9 8.6 89 0.8 NE 11 13 6 7 1015.1 - 0.0
24/12:00am 10.6 8.6 8.5 87 1.0 N 9 11 5 6 1015.4 1015.5 0.0
 
Date/Time
CDT
Temp
°C
App
Temp
°C
Dew
Point
Rel
Hum
%
Delta-T
°C
Wind Press
QNH
hPa
Press
MSL
hPa
Rain
since 9 am
mm
Dir
 
Spd
km/h
Gust
km/h
Spd
kts
Gust
kts
23/11:30pm 10.7 8.7 8.6 87 1.0 N 9 11 5 6 1015.5 - 0.0
23/11:00pm 11.4 9.2 9.3 87 1.1 N 11 13 6 7 1015.5 - 0.0
23/10:30pm 11.4 9.5 9.0 85 1.2 N 9 11 5 6 1015.7 - 0.0
23/10:00pm 11.8 9.6 9.4 85 1.2 NNW 11 13 6 7 1015.8 - 0.0
23/09:30pm 11.8 9.8 8.6 81 1.6 NW 9 11 5 6 1015.5 - 0.0
23/09:00pm 12.6 11.3 9.2 80 1.7 WNW 6 9 3 5 1015.3 1015.4 0.0
23/08:30pm 13.3 13.0 8.8 74 2.3 CALM 0 0 0 0 1014.9 - 0.0
23/08:00pm 16.2 15.4 11.8 75 2.4 SW 7 11 4 6 1014.9 - 0.0
23/07:30pm 17.9 16.1 12.1 69 3.2 WSW 13 17 7 9 1014.7 - 0.0
23/07:00pm 20.1 18.4 12.3 61 4.4 WSW 13 17 7 9 1014.3 - 0.0
23/06:30pm 22.0 20.3 11.1 50 6.0 WSW 11 15 6 8 1014.1 - 0.0
23/06:00pm 22.0 20.0 11.4 51 5.9 SSW 13 17 7 9 1014.0 1014.0 0.0
23/05:30pm 22.6 20.2 11.4 49 6.3 SSW 15 19 8 10 1013.9 - 0.0
23/05:00pm 24.6 21.6 10.8 42 7.7 SW 17 24 9 13 1013.7 - 0.0
23/04:30pm 25.6 22.3 11.0 40 8.2 W 19 24 10 13 1013.6 - 0.0

Other Formats:

Comma delimited format used in spreadsheet applications
http://www.bom.gov.au/fwo/IDS60801/IDS60801.95671.axf

JavaScript Object Notation format (JSON) in row-major order
http://www.bom.gov.au/fwo/IDS60801/IDS60801.95671.json